sensor_id;sensor_type;location;lat;lon;timestamp;temperature;humidity
17092;DHT22;8661;45.700;4.880;2023-03-12T00:01:11;9.80;99.90
17092;DHT22;8661;45.700;4.880;2023-03-12T00:03:38;9.80;99.90
17092;DHT22;8661;45.700;4.880;2023-03-12T00:06:06;9.90;99.90
17092;DHT22;8661;45.700;4.880;2023-03-12T00:08:33;9.90;99.90
17092;DHT22;8661;45.700;4.880;2023-03-12T00:11:03;9.90;99.90
17092;DHT22;8661;45.700;4.880;2023-03-12T00:13:32;9.80;99.90
17092;DHT22;8661;45.700;4.880;2023-03-12T00:16:03;9.80;99.90
17092;DHT22;8661;45.700;4.880;2023-03-12T00:18:30;9.80;99.90
17092;DHT22;8661;45.700;4.880;2023-03-12T00:20:57;9.90;99.90
17092;DHT22;8661;45.700;4.880;2023-03-12T00:23:24;9.90;99.90
17092;DHT22;8661;45.700;4.880;2023-03-12T00:25:50;9.90;99.90
17092;DHT22;8661;45.700;4.880;2023-03-12T00:28:17;9.90;99.90
17092;DHT22;8661;45.700;4.880;2023-03-12T00:30:46;9.90;99.90
17092;DHT22;8661;45.700;4.880;2023-03-12T00:33:12;9.80;99.90
17092;DHT22;8661;45.700;4.880;2023-03-12T00:35:39;9.80;99.90
17092;DHT22;8661;45.700;4.880;2023-03-12T00:38:06;9.80;99.90
17092;DHT22;8661;45.700;4.880;2023-03-12T00:40:33;9.80;99.90
17092;DHT22;8661;45.700;4.880;2023-03-12T00:43:00;9.90;99.90
17092;DHT22;8661;45.700;4.880;2023-03-12T00:45:27;9.90;99.90
17092;DHT22;8661;45.700;4.880;2023-03-12T00:47:55;9.80;99.90
17092;DHT22;8661;45.700;4.880;2023-03-12T00:50:22;9.90;99.90
17092;DHT22;8661;45.700;4.880;2023-03-12T00:52:49;9.80;99.90
17092;DHT22;8661;45.700;4.880;2023-03-12T00:55:16;9.80;99.90
17092;DHT22;8661;45.700;4.880;2023-03-12T00:57:43;9.80;99.90
17092;DHT22;8661;45.700;4.880;2023-03-12T01:00:11;9.80;99.90
17092;DHT22;8661;45.700;4.880;2023-03-12T01:02:41;9.80;99.90
17092;DHT22;8661;45.700;4.880;2023-03-12T01:05:11;9.80;99.90
17092;DHT22;8661;45.700;4.880;2023-03-12T01:07:38;9.80;99.90
17092;DHT22;8661;45.700;4.880;2023-03-12T01:10:06;9.90;99.90
17092;DHT22;8661;45.700;4.880;2023-03-12T01:12:34;9.80;99.90
17092;DHT22;8661;45.700;4.880;2023-03-12T01:15:02;9.80;99.90
17092;DHT22;8661;45.700;4.880;2023-03-12T01:17:29;9.90;99.90
17092;DHT22;8661;45.700;4.880;2023-03-12T01:19:56;9.80;99.90
17092;DHT22;8661;45.700;4.880;2023-03-12T01:22:24;9.90;99.90
17092;DHT22;8661;45.700;4.880;2023-03-12T01:24:51;9.80;99.90
17092;DHT22;8661;45.700;4.880;2023-03-12T01:27:18;9.80;99.90
17092;DHT22;8661;45.700;4.880;2023-03-12T01:29:46;9.90;99.90
17092;DHT22;8661;45.700;4.880;2023-03-12T01:32:13;9.90;99.90
17092;DHT22;8661;45.700;4.880;2023-03-12T01:34:41;9.90;99.90
17092;DHT22;8661;45.700;4.880;2023-03-12T01:37:08;9.90;99.90
17092;DHT22;8661;45.700;4.880;2023-03-12T01:39:36;9.90;99.90
17092;DHT22;8661;45.700;4.880;2023-03-12T01:42:04;9.90;99.90
17092;DHT22;8661;45.700;4.880;2023-03-12T01:44:52;9.90;99.90
17092;DHT22;8661;45.700;4.880;2023-03-12T01:47:20;9.90;99.90
17092;DHT22;8661;45.700;4.880;2023-03-12T01:49:48;9.80;99.90
17092;DHT22;8661;45.700;4.880;2023-03-12T01:52:17;9.90;99.90
17092;DHT22;8661;45.700;4.880;2023-03-12T01:54:49;9.80;99.90
17092;DHT22;8661;45.700;4.880;2023-03-12T01:57:22;9.80;99.90
17092;DHT22;8661;45.700;4.880;2023-03-12T01:59:51;9.80;99.90
17092;DHT22;8661;45.700;4.880;2023-03-12T02:02:19;9.70;99.90
17092;DHT22;8661;45.700;4.880;2023-03-12T02:04:55;9.70;99.90
17092;DHT22;8661;45.700;4.880;2023-03-12T02:07:25;9.70;99.90
17092;DHT22;8661;45.700;4.880;2023-03-12T02:09:53;9.70;99.90
17092;DHT22;8661;45.700;4.880;2023-03-12T02:12:20;9.70;99.90
17092;DHT22;8661;45.700;4.880;2023-03-12T02:14:47;9.70;99.90
17092;DHT22;8661;45.700;4.880;2023-03-12T02:17:14;9.70;99.90
17092;DHT22;8661;45.700;4.880;2023-03-12T02:19:46;9.80;99.90
17092;DHT22;8661;45.700;4.880;2023-03-12T02:22:15;9.70;99.90
17092;DHT22;8661;45.700;4.880;2023-03-12T02:24:45;9.70;99.90
17092;DHT22;8661;45.700;4.880;2023-03-12T02:27:15;9.70;99.90
17092;DHT22;8661;45.700;4.880;2023-03-12T02:29:44;9.70;99.90
17092;DHT22;8661;45.700;4.880;2023-03-12T02:32:16;9.60;99.90
17092;DHT22;8661;45.700;4.880;2023-03-12T02:34:44;9.70;99.90
17092;DHT22;8661;45.700;4.880;2023-03-12T02:37:12;9.60;99.90
17092;DHT22;8661;45.700;4.880;2023-03-12T02:39:40;9.70;99.90
17092;DHT22;8661;45.700;4.880;2023-03-12T02:42:08;9.70;99.90
17092;DHT22;8661;45.700;4.880;2023-03-12T02:44:37;9.70;99.90
17092;DHT22;8661;45.700;4.880;2023-03-12T02:47:04;9.70;99.90
17092;DHT22;8661;45.700;4.880;2023-03-12T02:49:32;9.70;99.90
17092;DHT22;8661;45.700;4.880;2023-03-12T02:52:00;9.60;99.90
17092;DHT22;8661;45.700;4.880;2023-03-12T02:54:27;9.70;99.90
17092;DHT22;8661;45.700;4.880;2023-03-12T02:56:55;9.60;99.90
17092;DHT22;8661;45.700;4.880;2023-03-12T02:59:22;9.70;99.90
17092;DHT22;8661;45.700;4.880;2023-03-12T03:01:53;9.70;99.90
17092;DHT22;8661;45.700;4.880;2023-03-12T03:04:20;9.70;99.90
17092;DHT22;8661;45.700;4.880;2023-03-12T03:06:47;9.70;99.90
17092;DHT22;8661;45.700;4.880;2023-03-12T03:09:14;9.70;99.90
17092;DHT22;8661;45.700;4.880;2023-03-12T03:11:41;9.70;99.90
17092;DHT22;8661;45.700;4.880;2023-03-12T03:14:08;9.70;99.90
17092;DHT22;8661;45.700;4.880;2023-03-12T03:16:35;9.70;99.90
17092;DHT22;8661;45.700;4.880;2023-03-12T03:19:06;9.60;99.90
17092;DHT22;8661;45.700;4.880;2023-03-12T03:21:33;9.70;99.90
17092;DHT22;8661;45.700;4.880;2023-03-12T03:24:00;9.70;99.90
17092;DHT22;8661;45.700;4.880;2023-03-12T03:26:27;9.70;99.90
17092;DHT22;8661;45.700;4.880;2023-03-12T03:28:54;9.70;99.90
17092;DHT22;8661;45.700;4.880;2023-03-12T03:31:21;9.60;99.90
17092;DHT22;8661;45.700;4.880;2023-03-12T03:33:48;9.60;99.90
17092;DHT22;8661;45.700;4.880;2023-03-12T03:36:18;9.60;99.90
17092;DHT22;8661;45.700;4.880;2023-03-12T03:38:45;9.70;99.90
17092;DHT22;8661;45.700;4.880;2023-03-12T03:41:14;9.60;99.90
17092;DHT22;8661;45.700;4.880;2023-03-12T03:43:41;9.60;99.90
17092;DHT22;8661;45.700;4.880;2023-03-12T03:46:10;9.60;99.90
17092;DHT22;8661;45.700;4.880;2023-03-12T03:48:38;9.60;99.90
17092;DHT22;8661;45.700;4.880;2023-03-12T03:51:06;9.60;99.90
17092;DHT22;8661;45.700;4.880;2023-03-12T03:53:35;9.60;99.90
17092;DHT22;8661;45.700;4.880;2023-03-12T03:56:06;9.60;99.90
17092;DHT22;8661;45.700;4.880;2023-03-12T03:58:33;9.60;99.90
17092;DHT22;8661;45.700;4.880;2023-03-12T04:01:00;9.60;99.90
17092;DHT22;8661;45.700;4.880;2023-03-12T04:03:28;9.60;99.90
17092;DHT22;8661;45.700;4.880;2023-03-12T04:05:58;9.70;99.90
17092;DHT22;8661;45.700;4.880;2023-03-12T04:08:26;9.70;99.90
17092;DHT22;8661;45.700;4.880;2023-03-12T04:10:54;9.60;99.90
17092;DHT22;8661;45.700;4.880;2023-03-12T04:13:21;9.60;99.90
17092;DHT22;8661;45.700;4.880;2023-03-12T04:15:49;9.70;99.90
17092;DHT22;8661;45.700;4.880;2023-03-12T04:18:17;9.60;99.90
17092;DHT22;8661;45.700;4.880;2023-03-12T04:20:44;9.60;99.90
17092;DHT22;8661;45.700;4.880;2023-03-12T04:23:11;9.70;99.90
17092;DHT22;8661;45.700;4.880;2023-03-12T04:25:38;9.70;99.90
17092;DHT22;8661;45.700;4.880;2023-03-12T04:28:08;9.70;99.90
17092;DHT22;8661;45.700;4.880;2023-03-12T04:30:35;9.70;99.90
17092;DHT22;8661;45.700;4.880;2023-03-12T04:33:03;9.70;99.90
17092;DHT22;8661;45.700;4.880;2023-03-12T04:35:30;9.70;99.90
17092;DHT22;8661;45.700;4.880;2023-03-12T04:37:57;9.70;99.90
17092;DHT22;8661;45.700;4.880;2023-03-12T04:40:23;9.70;99.90
17092;DHT22;8661;45.700;4.880;2023-03-12T04:42:50;9.60;99.90
17092;DHT22;8661;45.700;4.880;2023-03-12T04:45:19;9.70;99.90
17092;DHT22;8661;45.700;4.880;2023-03-12T04:47:45;9.70;99.90
17092;DHT22;8661;45.700;4.880;2023-03-12T04:50:12;9.60;99.90
17092;DHT22;8661;45.700;4.880;2023-03-12T04:52:39;9.60;99.90
17092;DHT22;8661;45.700;4.880;2023-03-12T04:55:07;9.60;99.90
17092;DHT22;8661;45.700;4.880;2023-03-12T04:57:34;9.60;99.90
17092;DHT22;8661;45.700;4.880;2023-03-12T05:00:02;9.60;99.90
17092;DHT22;8661;45.700;4.880;2023-03-12T05:02:36;9.60;99.90
17092;DHT22;8661;45.700;4.880;2023-03-12T05:05:04;9.60;99.90
17092;DHT22;8661;45.700;4.880;2023-03-12T05:07:31;9.60;99.90
17092;DHT22;8661;45.700;4.880;2023-03-12T05:09:58;9.60;99.90
17092;DHT22;8661;45.700;4.880;2023-03-12T05:12:25;9.60;99.90
17092;DHT22;8661;45.700;4.880;2023-03-12T05:14:52;9.60;99.90
17092;DHT22;8661;45.700;4.880;2023-03-12T05:17:19;9.60;99.90
17092;DHT22;8661;45.700;4.880;2023-03-12T05:19:49;9.60;99.90
17092;DHT22;8661;45.700;4.880;2023-03-12T05:22:16;9.60;99.90
17092;DHT22;8661;45.700;4.880;2023-03-12T05:24:43;9.60;99.90
17092;DHT22;8661;45.700;4.880;2023-03-12T05:27:10;9.60;99.90
17092;DHT22;8661;45.700;4.880;2023-03-12T05:29:37;9.60;99.90
17092;DHT22;8661;45.700;4.880;2023-03-12T05:32:04;9.60;99.90
17092;DHT22;8661;45.700;4.880;2023-03-12T05:34:32;9.60;99.90
17092;DHT22;8661;45.700;4.880;2023-03-12T05:37:01;9.60;99.90
17092;DHT22;8661;45.700;4.880;2023-03-12T05:39:28;9.50;99.90
17092;DHT22;8661;45.700;4.880;2023-03-12T05:41:54;9.50;99.90
17092;DHT22;8661;45.700;4.880;2023-03-12T05:44:23;9.50;99.90
17092;DHT22;8661;45.700;4.880;2023-03-12T05:46:50;9.50;99.90
17092;DHT22;8661;45.700;4.880;2023-03-12T05:49:17;9.40;99.90
17092;DHT22;8661;45.700;4.880;2023-03-12T05:51:45;9.40;99.90
17092;DHT22;8661;45.700;4.880;2023-03-12T05:54:15;9.40;99.90
17092;DHT22;8661;45.700;4.880;2023-03-12T05:56:43;9.30;99.90
17092;DHT22;8661;45.700;4.880;2023-03-12T05:59:09;9.40;99.90
17092;DHT22;8661;45.700;4.880;2023-03-12T06:01:36;9.30;99.90
17092;DHT22;8661;45.700;4.880;2023-03-12T06:04:04;9.30;99.90
17092;DHT22;8661;45.700;4.880;2023-03-12T06:06:31;9.30;99.90
17092;DHT22;8661;45.700;4.880;2023-03-12T06:08:59;9.30;99.90
17092;DHT22;8661;45.700;4.880;2023-03-12T06:11:27;9.30;99.90
17092;DHT22;8661;45.700;4.880;2023-03-12T06:13:55;9.30;99.90
17092;DHT22;8661;45.700;4.880;2023-03-12T06:16:24;9.50;99.90
17092;DHT22;8661;45.700;4.880;2023-03-12T06:18:52;9.40;99.90
17092;DHT22;8661;45.700;4.880;2023-03-12T06:21:21;9.30;99.90
17092;DHT22;8661;45.700;4.880;2023-03-12T06:23:49;9.40;99.90
17092;DHT22;8661;45.700;4.880;2023-03-12T06:26:18;9.40;99.90
17092;DHT22;8661;45.700;4.880;2023-03-12T06:28:47;9.40;99.90
17092;DHT22;8661;45.700;4.880;2023-03-12T06:31:14;9.40;99.90
17092;DHT22;8661;45.700;4.880;2023-03-12T06:33:41;9.50;99.90
17092;DHT22;8661;45.700;4.880;2023-03-12T06:36:09;9.50;99.90
17092;DHT22;8661;45.700;4.880;2023-03-12T06:38:37;9.70;99.90
17092;DHT22;8661;45.700;4.880;2023-03-12T06:41:06;9.60;99.90
17092;DHT22;8661;45.700;4.880;2023-03-12T06:43:35;9.70;99.90
17092;DHT22;8661;45.700;4.880;2023-03-12T06:46:06;9.80;99.90
17092;DHT22;8661;45.700;4.880;2023-03-12T06:48:34;9.90;99.90
17092;DHT22;8661;45.700;4.880;2023-03-12T06:51:02;10.50;99.90
17092;DHT22;8661;45.700;4.880;2023-03-12T06:53:29;10.60;99.90
17092;DHT22;8661;45.700;4.880;2023-03-12T06:55:57;10.60;99.90
17092;DHT22;8661;45.700;4.880;2023-03-12T06:58:24;10.50;99.90
17092;DHT22;8661;45.700;4.880;2023-03-12T07:00:52;10.50;99.90
17092;DHT22;8661;45.700;4.880;2023-03-12T07:03:21;10.50;99.90
17092;DHT22;8661;45.700;4.880;2023-03-12T07:05:49;10.70;99.90
17092;DHT22;8661;45.700;4.880;2023-03-12T07:08:17;10.70;99.90
17092;DHT22;8661;45.700;4.880;2023-03-12T07:10:44;10.70;99.90
17092;DHT22;8661;45.700;4.880;2023-03-12T07:13:12;10.70;99.90
17092;DHT22;8661;45.700;4.880;2023-03-12T07:15:40;10.70;99.90
17092;DHT22;8661;45.700;4.880;2023-03-12T07:18:10;10.70;99.90
17092;DHT22;8661;45.700;4.880;2023-03-12T07:20:40;10.80;99.90
17092;DHT22;8661;45.700;4.880;2023-03-12T07:23:07;10.90;99.90
17092;DHT22;8661;45.700;4.880;2023-03-12T07:25:34;11.00;99.90
17092;DHT22;8661;45.700;4.880;2023-03-12T07:28:01;11.10;99.90
17092;DHT22;8661;45.700;4.880;2023-03-12T07:30:29;11.20;99.90
17092;DHT22;8661;45.700;4.880;2023-03-12T07:32:58;11.20;99.90
17092;DHT22;8661;45.700;4.880;2023-03-12T07:35:25;11.30;99.90
17092;DHT22;8661;45.700;4.880;2023-03-12T07:37:54;11.40;99.90
17092;DHT22;8661;45.700;4.880;2023-03-12T07:40:20;11.50;99.90
17092;DHT22;8661;45.700;4.880;2023-03-12T07:42:49;11.60;99.90
17092;DHT22;8661;45.700;4.880;2023-03-12T07:45:16;12.00;99.90
17092;DHT22;8661;45.700;4.880;2023-03-12T07:47:44;12.10;99.90
17092;DHT22;8661;45.700;4.880;2023-03-12T07:50:12;12.10;99.90
17092;DHT22;8661;45.700;4.880;2023-03-12T07:52:39;12.10;99.90
17092;DHT22;8661;45.700;4.880;2023-03-12T07:55:08;12.10;99.90
17092;DHT22;8661;45.700;4.880;2023-03-12T07:57:36;12.10;99.90
17092;DHT22;8661;45.700;4.880;2023-03-12T08:00:04;12.10;99.90
17092;DHT22;8661;45.700;4.880;2023-03-12T08:02:32;12.20;99.90
17092;DHT22;8661;45.700;4.880;2023-03-12T08:04:59;12.20;99.90
17092;DHT22;8661;45.700;4.880;2023-03-12T08:07:26;12.20;99.90
17092;DHT22;8661;45.700;4.880;2023-03-12T08:09:56;12.20;99.90
17092;DHT22;8661;45.700;4.880;2023-03-12T08:12:25;12.30;99.90
17092;DHT22;8661;45.700;4.880;2023-03-12T08:14:51;12.30;99.90
17092;DHT22;8661;45.700;4.880;2023-03-12T08:17:18;12.30;99.90
17092;DHT22;8661;45.700;4.880;2023-03-12T08:19:45;12.30;99.90
17092;DHT22;8661;45.700;4.880;2023-03-12T08:22:13;12.40;99.90
17092;DHT22;8661;45.700;4.880;2023-03-12T08:24:39;12.50;99.90
17092;DHT22;8661;45.700;4.880;2023-03-12T08:27:06;12.50;99.90
17092;DHT22;8661;45.700;4.880;2023-03-12T08:29:35;12.60;99.90
17092;DHT22;8661;45.700;4.880;2023-03-12T08:32:01;12.70;99.90
17092;DHT22;8661;45.700;4.880;2023-03-12T08:34:28;12.80;99.90
17092;DHT22;8661;45.700;4.880;2023-03-12T08:36:55;12.90;99.90
17092;DHT22;8661;45.700;4.880;2023-03-12T08:39:22;13.00;99.90
17092;DHT22;8661;45.700;4.880;2023-03-12T08:41:49;13.20;99.90
17092;DHT22;8661;45.700;4.880;2023-03-12T08:44:19;13.30;99.90
17092;DHT22;8661;45.700;4.880;2023-03-12T08:46:48;13.30;99.90
17092;DHT22;8661;45.700;4.880;2023-03-12T08:49:14;13.30;99.90
17092;DHT22;8661;45.700;4.880;2023-03-12T08:51:41;13.30;99.90
17092;DHT22;8661;45.700;4.880;2023-03-12T08:54:08;13.20;99.90
17092;DHT22;8661;45.700;4.880;2023-03-12T08:56:35;13.20;99.90
17092;DHT22;8661;45.700;4.880;2023-03-12T08:59:06;13.10;99.90
17092;DHT22;8661;45.700;4.880;2023-03-12T09:01:33;13.00;99.90
17092;DHT22;8661;45.700;4.880;2023-03-12T09:04:01;12.90;99.90
17092;DHT22;8661;45.700;4.880;2023-03-12T09:06:28;12.80;99.90
17092;DHT22;8661;45.700;4.880;2023-03-12T09:08:55;12.60;99.90
17092;DHT22;8661;45.700;4.880;2023-03-12T09:11:22;12.50;99.90
17092;DHT22;8661;45.700;4.880;2023-03-12T09:13:49;12.50;99.90
17092;DHT22;8661;45.700;4.880;2023-03-12T09:16:16;12.50;99.90
17092;DHT22;8661;45.700;4.880;2023-03-12T09:18:43;12.60;99.90
17092;DHT22;8661;45.700;4.880;2023-03-12T09:21:11;12.70;99.90
17092;DHT22;8661;45.700;4.880;2023-03-12T09:23:38;12.70;99.90
17092;DHT22;8661;45.700;4.880;2023-03-12T09:26:08;12.80;99.90
17092;DHT22;8661;45.700;4.880;2023-03-12T09:28:35;13.10;99.90
17092;DHT22;8661;45.700;4.880;2023-03-12T09:31:02;13.30;99.90
17092;DHT22;8661;45.700;4.880;2023-03-12T09:33:29;13.40;99.90
17092;DHT22;8661;45.700;4.880;2023-03-12T09:35:57;14.00;99.90
17092;DHT22;8661;45.700;4.880;2023-03-12T09:38:27;14.60;99.90
17092;DHT22;8661;45.700;4.880;2023-03-12T09:40:56;14.90;99.90
17092;DHT22;8661;45.700;4.880;2023-03-12T09:43:26;15.10;99.90
17092;DHT22;8661;45.700;4.880;2023-03-12T09:45:57;15.40;99.90
17092;DHT22;8661;45.700;4.880;2023-03-12T09:48:30;15.60;99.90
17092;DHT22;8661;45.700;4.880;2023-03-12T09:51:00;15.60;99.90
17092;DHT22;8661;45.700;4.880;2023-03-12T09:53:37;15.60;99.90
17092;DHT22;8661;45.700;4.880;2023-03-12T09:56:11;15.50;99.90
17092;DHT22;8661;45.700;4.880;2023-03-12T09:58:39;15.40;99.90
17092;DHT22;8661;45.700;4.880;2023-03-12T10:01:23;15.30;99.90
17092;DHT22;8661;45.700;4.880;2023-03-12T10:03:59;15.20;99.90
17092;DHT22;8661;45.700;4.880;2023-03-12T10:06:29;15.40;99.90
17092;DHT22;8661;45.700;4.880;2023-03-12T10:09:11;15.50;99.90
17092;DHT22;8661;45.700;4.880;2023-03-12T10:11:46;15.70;99.90
17092;DHT22;8661;45.700;4.880;2023-03-12T10:14:24;16.00;99.90
17092;DHT22;8661;45.700;4.880;2023-03-12T10:17:04;16.10;99.90
17092;DHT22;8661;45.700;4.880;2023-03-12T10:19:50;16.40;99.90
17092;DHT22;8661;45.700;4.880;2023-03-12T10:22:28;16.50;99.90
17092;DHT22;8661;45.700;4.880;2023-03-12T10:25:04;16.70;99.90
17092;DHT22;8661;45.700;4.880;2023-03-12T10:27:34;16.90;99.90
17092;DHT22;8661;45.700;4.880;2023-03-12T10:30:04;17.10;99.90
17092;DHT22;8661;45.700;4.880;2023-03-12T10:32:41;17.20;99.90
17092;DHT22;8661;45.700;4.880;2023-03-12T10:35:13;17.20;99.90
17092;DHT22;8661;45.700;4.880;2023-03-12T10:37:45;17.20;99.90
17092;DHT22;8661;45.700;4.880;2023-03-12T10:40:17;17.10;99.90
17092;DHT22;8661;45.700;4.880;2023-03-12T10:42:44;17.10;99.90
17092;DHT22;8661;45.700;4.880;2023-03-12T10:45:25;17.40;99.90
17092;DHT22;8661;45.700;4.880;2023-03-12T10:47:58;17.50;99.90
17092;DHT22;8661;45.700;4.880;2023-03-12T10:50:27;17.60;99.90
17092;DHT22;8661;45.700;4.880;2023-03-12T10:53:15;17.70;99.90
17092;DHT22;8661;45.700;4.880;2023-03-12T10:55:57;18.00;99.90
17092;DHT22;8661;45.700;4.880;2023-03-12T10:58:25;18.40;99.90
17092;DHT22;8661;45.700;4.880;2023-03-12T11:00:58;18.90;99.90
17092;DHT22;8661;45.700;4.880;2023-03-12T11:03:26;19.50;99.90
17092;DHT22;8661;45.700;4.880;2023-03-12T11:11:29;20.70;99.90
17092;DHT22;8661;45.700;4.880;2023-03-12T11:14:06;20.80;99.90
17092;DHT22;8661;45.700;4.880;2023-03-12T11:16:33;20.70;99.90
17092;DHT22;8661;45.700;4.880;2023-03-12T11:19:02;20.60;99.90
17092;DHT22;8661;45.700;4.880;2023-03-12T11:21:31;20.30;99.90
17092;DHT22;8661;45.700;4.880;2023-03-12T11:24:06;20.10;99.90
17092;DHT22;8661;45.700;4.880;2023-03-12T11:26:38;19.70;99.90
17092;DHT22;8661;45.700;4.880;2023-03-12T11:29:16;19.60;99.90
17092;DHT22;8661;45.700;4.880;2023-03-12T11:31:49;19.70;99.90
17092;DHT22;8661;45.700;4.880;2023-03-12T11:34:23;19.60;99.90
17092;DHT22;8661;45.700;4.880;2023-03-12T11:36:58;19.50;99.90
17092;DHT22;8661;45.700;4.880;2023-03-12T11:39:32;19.50;99.90
17092;DHT22;8661;45.700;4.880;2023-03-12T11:42:13;19.40;99.90
17092;DHT22;8661;45.700;4.880;2023-03-12T11:44:51;19.20;99.90
17092;DHT22;8661;45.700;4.880;2023-03-12T11:47:35;19.10;99.90
17092;DHT22;8661;45.700;4.880;2023-03-12T11:50:25;18.80;99.90
17092;DHT22;8661;45.700;4.880;2023-03-12T11:53:05;18.50;99.90
17092;DHT22;8661;45.700;4.880;2023-03-12T11:55:41;17.70;99.90
17092;DHT22;8661;45.700;4.880;2023-03-12T11:58:25;17.10;99.90
17092;DHT22;8661;45.700;4.880;2023-03-12T12:00:58;17.20;99.90
17092;DHT22;8661;45.700;4.880;2023-03-12T12:03:43;17.40;99.90
17092;DHT22;8661;45.700;4.880;2023-03-12T12:06:17;17.60;99.90
17092;DHT22;8661;45.700;4.880;2023-03-12T12:08:56;17.90;99.90
17092;DHT22;8661;45.700;4.880;2023-03-12T12:11:32;18.30;99.90
17092;DHT22;8661;45.700;4.880;2023-03-12T12:14:12;18.70;99.90
17092;DHT22;8661;45.700;4.880;2023-03-12T12:16:53;19.50;99.90
17092;DHT22;8661;45.700;4.880;2023-03-12T12:19:30;20.30;99.90
17092;DHT22;8661;45.700;4.880;2023-03-12T12:22:12;20.60;99.90
17092;DHT22;8661;45.700;4.880;2023-03-12T12:25:11;21.60;99.50
17092;DHT22;8661;45.700;4.880;2023-03-12T12:27:43;22.80;97.30
17092;DHT22;8661;45.700;4.880;2023-03-12T12:30:20;23.10;95.20
17092;DHT22;8661;45.700;4.880;2023-03-12T12:33:00;23.60;93.30
17092;DHT22;8661;45.700;4.880;2023-03-12T12:35:33;23.70;92.30
17092;DHT22;8661;45.700;4.880;2023-03-12T12:38:04;24.10;91.40
17092;DHT22;8661;45.700;4.880;2023-03-12T12:40:37;24.20;90.60
17092;DHT22;8661;45.700;4.880;2023-03-12T12:43:19;24.30;90.30
17092;DHT22;8661;45.700;4.880;2023-03-12T12:45:51;24.30;88.80
17092;DHT22;8661;45.700;4.880;2023-03-12T12:48:21;24.60;88.00
17092;DHT22;8661;45.700;4.880;2023-03-12T12:50:51;24.40;85.60
17092;DHT22;8661;45.700;4.880;2023-03-12T12:53:22;24.00;87.00
17092;DHT22;8661;45.700;4.880;2023-03-12T12:56:01;24.40;84.30
17092;DHT22;8661;45.700;4.880;2023-03-12T12:58:44;24.70;82.60
17092;DHT22;8661;45.700;4.880;2023-03-12T13:01:15;24.20;83.30
17092;DHT22;8661;45.700;4.880;2023-03-12T13:03:43;23.70;86.40
17092;DHT22;8661;45.700;4.880;2023-03-12T13:06:11;23.20;86.50
17092;DHT22;8661;45.700;4.880;2023-03-12T13:09:11;23.30;85.80
17092;DHT22;8661;45.700;4.880;2023-03-12T13:11:43;23.40;81.20
17092;DHT22;8661;45.700;4.880;2023-03-12T13:14:19;23.60;83.70
17092;DHT22;8661;45.700;4.880;2023-03-12T13:16:49;23.60;83.30
17092;DHT22;8661;45.700;4.880;2023-03-12T13:19:38;23.50;84.30
17092;DHT22;8661;45.700;4.880;2023-03-12T13:22:13;24.00;81.20
17092;DHT22;8661;45.700;4.880;2023-03-12T13:24:45;24.40;80.00
17092;DHT22;8661;45.700;4.880;2023-03-12T13:27:20;24.20;79.70
17092;DHT22;8661;45.700;4.880;2023-03-12T13:29:48;24.40;80.00
17092;DHT22;8661;45.700;4.880;2023-03-12T13:33:05;24.70;79.30
17092;DHT22;8661;45.700;4.880;2023-03-12T13:35:37;24.40;73.60
17092;DHT22;8661;45.700;4.880;2023-03-12T13:38:09;24.40;78.30
17092;DHT22;8661;45.700;4.880;2023-03-12T13:40:53;24.60;77.60
17092;DHT22;8661;45.700;4.880;2023-03-12T13:43:46;24.90;76.90
17092;DHT22;8661;45.700;4.880;2023-03-12T13:46:33;24.90;74.40
17092;DHT22;8661;45.700;4.880;2023-03-12T13:49:12;24.80;74.80
17092;DHT22;8661;45.700;4.880;2023-03-12T13:51:55;24.90;75.30
17092;DHT22;8661;45.700;4.880;2023-03-12T13:54:27;24.80;74.30
17092;DHT22;8661;45.700;4.880;2023-03-12T13:56:57;24.60;74.40
17092;DHT22;8661;45.700;4.880;2023-03-12T13:59:25;24.60;74.20
17092;DHT22;8661;45.700;4.880;2023-03-12T14:01:56;24.60;74.20
17092;DHT22;8661;45.700;4.880;2023-03-12T14:04:32;24.50;73.60
17092;DHT22;8661;45.700;4.880;2023-03-12T14:07:20;24.70;72.80
17092;DHT22;8661;45.700;4.880;2023-03-12T14:09:59;24.50;71.20
17092;DHT22;8661;45.700;4.880;2023-03-12T14:12:33;24.50;74.00
17092;DHT22;8661;45.700;4.880;2023-03-12T14:15:20;24.40;73.70
17092;DHT22;8661;45.700;4.880;2023-03-12T14:17:55;24.40;73.00
17092;DHT22;8661;45.700;4.880;2023-03-12T14:20:24;24.50;73.30
17092;DHT22;8661;45.700;4.880;2023-03-12T14:22:54;24.50;73.10
17092;DHT22;8661;45.700;4.880;2023-03-12T14:25:30;24.50;73.60
17092;DHT22;8661;45.700;4.880;2023-03-12T14:27:58;24.50;71.10
17092;DHT22;8661;45.700;4.880;2023-03-12T14:30:33;23.80;73.20
17092;DHT22;8661;45.700;4.880;2023-03-12T14:33:03;23.60;74.30
17092;DHT22;8661;45.700;4.880;2023-03-12T14:35:37;23.30;75.30
17092;DHT22;8661;45.700;4.880;2023-03-12T14:38:12;23.10;75.30
17092;DHT22;8661;45.700;4.880;2023-03-12T14:40:43;23.00;76.50
17092;DHT22;8661;45.700;4.880;2023-03-12T14:43:22;22.60;76.70
17092;DHT22;8661;45.700;4.880;2023-03-12T14:45:52;22.40;77.00
17092;DHT22;8661;45.700;4.880;2023-03-12T14:48:21;22.20;77.70
17092;DHT22;8661;45.700;4.880;2023-03-12T14:50:49;22.00;78.70
17092;DHT22;8661;45.700;4.880;2023-03-12T14:53:19;22.20;78.60
17092;DHT22;8661;45.700;4.880;2023-03-12T14:56:01;22.30;78.50
17092;DHT22;8661;45.700;4.880;2023-03-12T14:58:29;22.30;77.50
17092;DHT22;8661;45.700;4.880;2023-03-12T15:00:58;22.40;77.80
17092;DHT22;8661;45.700;4.880;2023-03-12T15:03:25;22.30;77.30
17092;DHT22;8661;45.700;4.880;2023-03-12T15:05:55;22.00;78.10
17092;DHT22;8661;45.700;4.880;2023-03-12T15:08:23;21.70;79.00
17092;DHT22;8661;45.700;4.880;2023-03-12T15:10:53;21.90;78.30
17092;DHT22;8661;45.700;4.880;2023-03-12T15:13:21;21.70;78.90
17092;DHT22;8661;45.700;4.880;2023-03-12T15:15:51;21.80;79.50
17092;DHT22;8661;45.700;4.880;2023-03-12T15:18:22;21.80;79.10
17092;DHT22;8661;45.700;4.880;2023-03-12T15:20:51;21.60;79.30
17092;DHT22;8661;45.700;4.880;2023-03-12T15:23:21;21.60;79.10
17092;DHT22;8661;45.700;4.880;2023-03-12T15:26:08;21.60;79.10
17092;DHT22;8661;45.700;4.880;2023-03-12T15:28:35;21.60;78.30
17092;DHT22;8661;45.700;4.880;2023-03-12T15:31:11;21.60;79.90
17092;DHT22;8661;45.700;4.880;2023-03-12T15:33:40;21.60;78.80
17092;DHT22;8661;45.700;4.880;2023-03-12T15:36:22;21.50;80.00
17092;DHT22;8661;45.700;4.880;2023-03-12T15:38:53;21.50;78.50
17092;DHT22;8661;45.700;4.880;2023-03-12T15:41:22;21.30;78.60
17092;DHT22;8661;45.700;4.880;2023-03-12T15:43:53;21.20;80.40
17092;DHT22;8661;45.700;4.880;2023-03-12T15:46:22;21.30;79.80
17092;DHT22;8661;45.700;4.880;2023-03-12T15:48:51;21.70;78.70
17092;DHT22;8661;45.700;4.880;2023-03-12T15:51:29;22.30;77.70
17092;DHT22;8661;45.700;4.880;2023-03-12T15:54:03;22.40;76.10
17092;DHT22;8661;45.700;4.880;2023-03-12T15:56:32;22.90;75.80
17092;DHT22;8661;45.700;4.880;2023-03-12T15:59:19;23.00;75.00
17092;DHT22;8661;45.700;4.880;2023-03-12T16:01:49;21.90;75.30
17092;DHT22;8661;45.700;4.880;2023-03-12T16:04:17;21.30;78.00
17092;DHT22;8661;45.700;4.880;2023-03-12T16:06:45;20.90;79.00
17092;DHT22;8661;45.700;4.880;2023-03-12T16:09:16;20.50;80.10
17092;DHT22;8661;45.700;4.880;2023-03-12T16:11:44;20.00;80.80
17092;DHT22;8661;45.700;4.880;2023-03-12T16:14:15;19.80;81.70
17092;DHT22;8661;45.700;4.880;2023-03-12T16:16:44;19.60;82.30
17092;DHT22;8661;45.700;4.880;2023-03-12T16:19:11;19.70;82.80